Forside
METAR-TAF:

METAR-TAF

Lufthavne :

Stauning Lufthavn

Ringkøbing-Skjern, Danmark

Breddekreds: 56-00N, længdekreds: 008-21E, højde: 5 m

Aktuelle vejr

Denne rapport blev lavet for 14 timer og 7 minutter siden, kl. 13:50 UTC
Vind 10 kt fra syd
Temperatur 7°C
Fugtighed 87%
Tryk 1010 hPa
Sigt 10 km eller mere
Brudte skyer i en højde af 5000 ft

METAR: EKVJ 171350Z 17010KT 9999 BKN050 07/05 Q1010

Tid: 04:57 (03:57 UTC)

Vejrudsigter

Denne rapport blev lavet for 13 timer og 35 minutter siden, kl. 14:22 UTC
Foreløbig gælder fra 17 på 14 UTC til 17 på 16 UTC
Vind 15 kt fra syd
Sigt 10 km eller mere
Spredte skyer i en højde af 3000 ft
ændring
fra 17 på 14 UTC til 17 på 16 UTC
Sigt: 2000 m
Brudte skyer i en højde af 400 ft
regn, finregn

TAF: EKVJ 171422Z 1714/1716 18015KT 9999 SCT030 BECMG 1714/1716 2000 RADZ BKN004

Vejrobservationer og prognoser fra mere end 4000 lufthavne (METAR og TAF).

De gule og røde prikker repræsenterer de meteorologiske stationer.

Flyt musen over at se navnet på stationen.

Så klik over at se vejr observationer og prognoser.

At skifte det kort: Klik på de grønne knapper med et sort kors for at zoome ind; på den grønne knap med en bindestreg for at zoome ud; eller på de grønne pile for tilstødende kort.


METAR-TAF: